Time;durP1;ratioP1;P1;durP2;ratioP2;P2;SDS_P1;SDS_P2;PMS_P1;PMS_P2;Temp;Humidity;BMP_temperature;BMP_pressure;BME280_temperature;BME280_humidity;BME280_pressure;Samples;Min_cycle;Max_cycle;Signal;HPM_P1;HPM_P2
2022/12/05 00:02:02;;;;;;;29.85;16.33;;;6.50;83.20;;;;;;5037486;28;21018;-66
2022/12/05 00:04:30;;;;;;;26.70;13.90;;;6.50;83.20;;;;;;5041630;28;20296;-66
2022/12/05 00:07:00;;;;;;;28.17;15.15;;;6.50;83.20;;;;;;5038718;28;20208;-67
2022/12/05 00:09:28;;;;;;;25.80;15.90;;;6.50;83.20;;;;;;5041570;28;20201;-67
2022/12/05 00:11:56;;;;;;;30.70;17.63;;;6.50;83.20;;;;;;5038303;28;20193;-66
2022/12/05 00:14:24;;;;;;;31.42;17.50;;;6.50;83.20;;;;;;5040164;28;20217;-67
2022/12/05 00:16:52;;;;;;;25.33;15.63;;;6.50;83.20;;;;;;5040741;28;20216;-68
2022/12/05 00:19:21;;;;;;;29.55;16.75;;;6.50;83.20;;;;;;5039125;28;20208;-68
2022/12/05 00:21:49;;;;;;;31.63;17.25;;;6.50;83.20;;;;;;5037532;28;20228;-68
2022/12/05 00:24:19;;;;;;;29.70;16.17;;;6.50;83.20;;;;;;5042075;28;20236;-68
2022/12/05 00:26:47;;;;;;;31.80;16.45;;;6.50;83.20;;;;;;5036833;28;20201;-69
2022/12/05 00:29:15;;;;;;;31.88;18.10;;;6.50;83.20;;;;;;5040015;28;20663;-69
2022/12/05 00:31:43;;;;;;;28.88;15.63;;;6.50;83.20;;;;;;5040760;28;20201;-69
2022/12/05 00:34:11;;;;;;;29.70;15.65;;;6.50;83.20;;;;;;5041488;28;20244;-69
2022/12/05 00:36:40;;;;;;;29.80;15.43;;;6.50;83.20;;;;;;5057652;28;20217;-69
2022/12/05 00:39:10;;;;;;;25.95;15.07;;;6.50;83.40;;;;;;5041850;28;20870;-70
2022/12/05 00:41:40;;;;;;;26.98;15.95;;;6.50;83.40;;;;;;5041725;28;20220;-67
2022/12/05 00:44:08;;;;;;;27.45;16.17;;;6.50;83.40;;;;;;5039819;28;20289;-67
2022/12/05 00:46:36;;;;;;;32.47;16.50;;;6.50;83.40;;;;;;5039035;28;20205;-67
2022/12/05 00:49:06;;;;;;;28.80;16.10;;;6.50;83.20;;;;;;5037471;28;20216;-67
2022/12/05 00:51:36;;;;;;;28.85;16.10;;;6.50;83.20;;;;;;5038238;28;20954;-66
2022/12/05 00:54:07;;;;;;;28.40;17.00;;;6.50;83.20;;;;;;5041474;28;20220;-67
2022/12/05 00:56:35;;;;;;;31.15;15.85;;;6.50;83.20;;;;;;5035659;28;20213;-67
2022/12/05 00:59:06;;;;;;;29.58;16.00;;;6.50;83.40;;;;;;5036408;28;20193;-67
2022/12/05 01:01:36;;;;;;;29.52;16.27;;;6.50;83.40;;;;;;5035742;28;20193;-67
2022/12/05 01:04:08;;;;;;;27.58;16.02;;;6.50;83.40;;;;;;5039014;28;20273;-68
2022/12/05 01:06:36;;;;;;;29.02;17.15;;;6.50;83.20;;;;;;5037143;28;20227;-69
2022/12/05 01:09:05;;;;;;;30.10;17.10;;;6.40;83.20;;;;;;5036779;28;20250;-68
2022/12/05 01:11:34;;;;;;;27.38;16.30;;;6.40;83.20;;;;;;5035532;28;20192;-68
2022/12/05 01:14:10;;;;;;;33.55;17.30;;;6.40;83.40;;;;;;5037393;28;20736;-68
2022/12/05 01:16:40;;;;;;;30.77;18.08;;;6.40;83.40;;;;;;5036952;28;20213;-70
2022/12/05 01:19:13;;;;;;;29.20;16.95;;;6.40;83.50;;;;;;5034294;28;20233;-68
2022/12/05 01:21:41;;;;;;;29.55;15.73;;;6.40;83.50;;;;;;5033791;28;20224;-69
2022/12/05 01:24:10;;;;;;;26.20;14.95;;;6.40;83.40;;;;;;5035927;28;20228;-68
2022/12/05 01:26:39;;;;;;;30.48;16.73;;;6.40;83.50;;;;;;5036248;28;20220;-68
2022/12/05 01:29:09;;;;;;;30.20;17.10;;;6.40;83.50;;;;;;5036143;28;20336;-68
2022/12/05 01:31:38;;;;;;;28.77;15.07;;;6.40;83.60;;;;;;5033711;28;20214;-68
2022/12/05 01:34:10;;;;;;;32.28;17.35;;;6.40;83.60;;;;;;5033425;28;20274;-67
2022/12/05 01:36:39;;;;;;;29.85;16.30;;;6.40;83.60;;;;;;5039621;28;20209;-68
2022/12/05 01:39:08;;;;;;;33.20;16.60;;;6.40;83.60;;;;;;5040702;28;20671;-68
2022/12/05 01:41:39;;;;;;;29.00;16.63;;;6.40;83.60;;;;;;5035996;28;20841;-68
2022/12/05 01:44:23;;;;;;;28.58;16.35;;;6.40;83.60;;;;;;5037869;28;20965;-68
2022/12/05 01:46:53;;;;;;;32.28;17.65;;;6.40;83.70;;;;;;5036111;28;20629;-67
2022/12/05 01:49:27;;;;;;;28.45;15.57;;;6.40;83.70;;;;;;5034214;28;20288;-67
2022/12/05 01:52:00;;;;;;;33.58;17.17;;;6.40;83.70;;;;;;5038909;28;20213;-69
2022/12/05 01:54:29;;;;;;;33.20;17.92;;;6.40;83.70;;;;;;5036519;28;20225;-68
2022/12/05 01:57:00;;;;;;;29.42;17.23;;;6.40;83.70;;;;;;5041111;28;21135;-69
2022/12/05 01:59:34;;;;;;;30.45;16.02;;;6.40;83.70;;;;;;5034746;28;20294;-67
2022/12/05 02:02:03;;;;;;;31.90;17.60;;;6.40;83.70;;;;;;5037266;28;20199;-68
2022/12/05 02:04:34;;;;;;;30.02;16.23;;;6.40;83.70;;;;;;5038085;28;20265;-67
2022/12/05 02:07:02;;;;;;;31.08;16.63;;;6.40;83.70;;;;;;5038503;28;20216;-67
2022/12/05 02:09:30;;;;;;;30.73;17.33;;;6.40;83.70;;;;;;5038359;28;20212;-67
2022/12/05 02:12:01;;;;;;;31.80;17.27;;;6.40;83.80;;;;;;5035593;28;20205;-67
2022/12/05 02:14:36;;;;;;;35.47;17.88;;;6.40;83.80;;;;;;5032516;28;20224;-67
2022/12/05 02:17:13;;;;;;;35.30;16.50;;;6.40;83.80;;;;;;5035684;28;20223;-67
2022/12/05 02:20:10;;;;;;;31.45;16.83;;;6.40;83.80;;;;;;5035042;28;20254;-67
2022/12/05 02:22:58;;;;;;;32.38;16.58;;;6.40;83.80;;;;;;5036218;28;20212;-68
2022/12/05 02:25:44;;;;;;;39.05;17.38;;;6.40;83.80;;;;;;5036145;28;20225;-67
2022/12/05 02:28:55;;;;;;;35.72;18.38;;;6.40;83.80;;;;;;5033794;28;20217;-67
2022/12/05 02:31:33;;;;;;;35.72;17.77;;;6.40;83.80;;;;;;4994955;28;20213;-68
2022/12/05 02:34:06;;;;;;;37.22;18.55;;;6.40;83.80;;;;;;5053565;28;20252;-67
2022/12/05 02:36:40;;;;;;;32.05;16.17;;;6.40;83.80;;;;;;5034828;28;20204;-67
2022/12/05 02:39:14;;;;;;;32.33;17.00;;;6.40;83.90;;;;;;5037147;28;20228;-69
2022/12/05 02:41:49;;;;;;;33.30;17.33;;;6.40;83.90;;;;;;5033161;28;20262;-68
2022/12/05 02:44:27;;;;;;;28.23;15.82;;;6.40;83.90;;;;;;5034115;28;20228;-70
2022/12/05 02:47:01;;;;;;;34.47;16.70;;;6.40;83.90;;;;;;5033403;28;20258;-68
2022/12/05 02:49:33;;;;;;;38.35;18.65;;;6.40;83.90;;;;;;5035624;28;20208;-66
2022/12/05 02:52:05;;;;;;;31.33;16.95;;;6.40;83.90;;;;;;5032873;28;20879;-67
2022/12/05 02:54:37;;;;;;;35.92;18.25;;;6.40;83.80;;;;;;5030855;28;20282;-67
2022/12/05 02:57:13;;;;;;;36.67;18.25;;;6.40;83.90;;;;;;5035618;28;20192;-69
2022/12/05 02:59:44;;;;;;;38.20;19.45;;;6.40;83.80;;;;;;5038457;28;20249;-67
2022/12/05 03:02:28;;;;;;;39.78;17.40;;;6.40;83.80;;;;;;5037609;28;20204;-67
2022/12/05 03:05:14;;;;;;;42.50;19.10;;;6.40;83.80;;;;;;5041436;28;20231;-68
2022/12/05 03:07:49;;;;;;;38.92;18.35;;;6.40;83.90;;;;;;5039881;28;20213;-67
2022/12/05 03:10:24;;;;;;;39.45;19.77;;;6.40;83.90;;;;;;5039522;28;20678;-67
2022/12/05 03:13:00;;;;;;;33.50;16.63;;;6.40;83.80;;;;;;5041941;28;20204;-67
2022/12/05 03:15:33;;;;;;;42.78;18.45;;;6.40;83.80;;;;;;5041465;28;20227;-67
2022/12/05 03:18:07;;;;;;;40.30;19.40;;;6.40;83.90;;;;;;5046176;28;20212;-67
2022/12/05 03:20:42;;;;;;;40.22;19.75;;;6.40;84.00;;;;;;5036138;28;20776;-67
2022/12/05 03:23:15;;;;;;;44.25;20.92;;;6.40;84.00;;;;;;5046470;28;20624;-68
2022/12/05 03:25:55;;;;;;;42.17;19.23;;;6.40;84.00;;;;;;5043674;28;20219;-67
2022/12/05 03:28:29;;;;;;;39.75;19.33;;;6.40;84.00;;;;;;5037229;28;20264;-68
2022/12/05 03:31:05;;;;;;;44.08;20.42;;;6.40;84.10;;;;;;5036016;28;20673;-69
2022/12/05 03:33:40;;;;;;;42.70;19.25;;;6.40;84.10;;;;;;5042049;28;20300;-69
2022/12/05 03:36:14;;;;;;;42.25;20.17;;;6.40;84.10;;;;;;5040189;28;20262;-68
2022/12/05 03:38:48;;;;;;;42.15;18.60;;;6.40;84.10;;;;;;5037848;28;20275;-69
2022/12/05 03:41:22;;;;;;;41.78;17.75;;;6.40;84.10;;;;;;5039333;28;20201;-65
2022/12/05 03:43:56;;;;;;;39.38;19.52;;;6.40;84.10;;;;;;5040605;28;21022;-69
2022/12/05 03:46:28;;;;;;;44.22;19.50;;;6.40;84.10;;;;;;5041622;28;20201;-69
2022/12/05 03:49:07;;;;;;;36.38;18.92;;;6.40;84.10;;;;;;5044830;28;20220;-67
2022/12/05 03:51:38;;;;;;;34.40;18.63;;;6.40;84.10;;;;;;5041201;28;20269;-66
2022/12/05 03:54:12;;;;;;;30.75;16.70;;;6.40;84.10;;;;;;5037881;28;20225;-66
2022/12/05 03:56:46;;;;;;;35.80;18.65;;;6.40;84.10;;;;;;5040155;28;20209;-67
2022/12/05 03:59:21;;;;;;;35.80;18.13;;;6.40;84.10;;;;;;5042075;28;20205;-67
2022/12/05 04:01:54;;;;;;;38.42;19.08;;;6.40;84.10;;;;;;5041428;28;20969;-66
2022/12/05 04:04:30;;;;;;;42.88;18.88;;;6.40;84.10;;;;;;5041844;28;20239;-65
2022/12/05 04:07:06;;;;;;;38.40;19.30;;;6.40;84.10;;;;;;5044023;28;20205;-66
2022/12/05 04:09:40;;;;;;;40.15;17.85;;;6.40;84.10;;;;;;5038247;28;20270;-69
2022/12/05 04:12:13;;;;;;;38.90;19.60;;;6.40;84.10;;;;;;5042184;28;20196;-68
2022/12/05 04:14:47;;;;;;;43.40;21.40;;;6.40;84.10;;;;;;5041053;28;20233;-68
2022/12/05 04:17:22;;;;;;;37.95;18.55;;;6.40;84.00;;;;;;5040687;28;21166;-69
2022/12/05 04:22:44;;;;;;;43.58;20.95;;;6.40;84.10;;;;;;5040458;28;20670;-68
2022/12/05 04:28:12;;;;;;;44.38;19.92;;;6.40;84.10;;;;;;5049016;28;20227;-69
2022/12/05 04:30:54;;;;;;;45.33;19.77;;;6.40;84.20;;;;;;5047749;28;20212;-68
2022/12/05 04:33:29;;;;;;;44.60;19.88;;;6.40;84.20;;;;;;5050348;28;20218;-67
2022/12/05 04:36:02;;;;;;;43.90;19.45;;;6.40;84.20;;;;;;5052516;28;20659;-68
2022/12/05 04:38:37;;;;;;;46.60;21.25;;;6.40;84.20;;;;;;5046006;28;20200;-67
2022/12/05 04:41:11;;;;;;;45.55;19.95;;;6.40;84.20;;;;;;5053755;28;20795;-69
2022/12/05 04:43:42;;;;;;;50.53;19.80;;;6.40;84.20;;;;;;5047245;28;20826;-68
2022/12/05 04:46:13;;;;;;;44.40;19.90;;;6.40;84.20;;;;;;5049762;28;20204;-66
2022/12/05 04:48:45;;;;;;;48.50;20.65;;;6.40;84.20;;;;;;5052705;28;20224;-68
2022/12/05 04:51:18;;;;;;;42.67;20.30;;;6.40;84.20;;;;;;5047121;28;20213;-67
2022/12/05 04:53:52;;;;;;;42.13;18.73;;;6.40;84.30;;;;;;5047853;28;20306;-68
2022/12/05 04:56:24;;;;;;;41.90;18.85;;;6.40;84.30;;;;;;5047081;28;20281;-68
2022/12/05 04:58:52;;;;;;;48.55;19.98;;;6.40;84.20;;;;;;5041285;28;20201;-68
2022/12/05 05:01:23;;;;;;;43.38;19.38;;;6.40;84.20;;;;;;5038218;28;20188;-68
2022/12/05 05:03:56;;;;;;;43.35;18.67;;;6.40;84.20;;;;;;5041133;28;20256;-67
2022/12/05 05:06:27;;;;;;;49.50;18.73;;;6.40;84.30;;;;;;5040727;28;20282;-68
2022/12/05 05:08:56;;;;;;;49.25;19.83;;;6.40;84.30;;;;;;5039296;28;20219;-67
2022/12/05 05:11:27;;;;;;;45.30;19.30;;;6.40;84.30;;;;;;5039360;28;20193;-68
2022/12/05 05:13:55;;;;;;;37.70;17.55;;;6.50;84.30;;;;;;5038032;28;20224;-68
2022/12/05 05:16:25;;;;;;;43.47;16.65;;;6.40;84.20;;;;;;5038550;28;20196;-68
2022/12/05 05:18:54;;;;;;;30.35;14.60;;;6.40;84.20;;;;;;5039943;28;20228;-68
2022/12/05 05:21:26;;;;;;;26.77;13.32;;;6.40;84.20;;;;;;5040532;28;20242;-68
2022/12/05 05:23:55;;;;;;;32.67;15.75;;;6.40;84.30;;;;;;5036431;28;20235;-68
2022/12/05 05:26:24;;;;;;;29.55;16.30;;;6.40;84.30;;;;;;5037032;28;20201;-68
2022/12/05 05:28:53;;;;;;;36.80;14.95;;;6.40;84.40;;;;;;5042815;28;20216;-68
2022/12/05 05:31:21;;;;;;;29.80;15.15;;;6.40;84.30;;;;;;5034718;28;20212;-68
2022/12/05 05:33:50;;;;;;;25.98;13.07;;;6.40;84.40;;;;;;5038806;28;20319;-68
2022/12/05 05:36:19;;;;;;;25.77;12.95;;;6.50;84.30;;;;;;5039379;28;20211;-68
2022/12/05 05:38:51;;;;;;;19.75;12.02;;;6.50;84.30;;;;;;5039059;28;20212;-68
2022/12/05 05:41:21;;;;;;;24.17;12.75;;;6.40;84.30;;;;;;5036742;28;20205;-68
2022/12/05 05:43:50;;;;;;;22.08;12.82;;;6.40;84.30;;;;;;5038589;28;20756;-67
2022/12/05 05:46:20;;;;;;;20.83;12.18;;;6.40;84.30;;;;;;5037268;28;20278;-69
2022/12/05 05:48:48;;;;;;;20.63;12.10;;;6.40;84.30;;;;;;5037697;28;20609;-69
2022/12/05 05:51:18;;;;;;;24.23;12.52;;;6.40;84.40;;;;;;5038237;28;20205;-70
2022/12/05 05:53:46;;;;;;;19.38;12.13;;;6.40;84.40;;;;;;5037156;28;20222;-69
2022/12/05 05:56:18;;;;;;;22.30;11.82;;;6.50;84.40;;;;;;5037254;28;20357;-68
2022/12/05 05:58:54;;;;;;;21.05;11.57;;;6.40;84.30;;;;;;5035342;28;20207;-66
2022/12/05 06:01:22;;;;;;;22.13;11.90;;;6.40;84.30;;;;;;5037124;28;20213;-69
2022/12/05 06:03:51;;;;;;;22.85;13.65;;;6.40;84.30;;;;;;5035012;28;20236;-69
2022/12/05 06:06:20;;;;;;;24.63;13.52;;;6.40;84.30;;;;;;5036798;28;20274;-69
2022/12/05 06:08:48;;;;;;;22.75;13.25;;;6.40;84.30;;;;;;5038954;28;21211;-69
2022/12/05 06:11:20;;;;;;;22.40;13.02;;;6.40;84.40;;;;;;5036982;28;20262;-69
2022/12/05 06:13:54;;;;;;;21.20;13.73;;;6.40;84.40;;;;;;5034842;28;20310;-68
2022/12/05 06:16:22;;;;;;;23.67;14.60;;;6.40;84.40;;;;;;5033395;28;20318;-68
2022/12/05 06:18:52;;;;;;;21.58;14.02;;;6.40;84.30;;;;;;5035680;28;20220;-69
2022/12/05 06:21:20;;;;;;;20.77;13.10;;;6.40;84.30;;;;;;5035625;28;20592;-68
2022/12/05 06:23:49;;;;;;;25.05;14.32;;;6.40;84.30;;;;;;5040967;28;20258;-69
2022/12/05 06:26:20;;;;;;;23.45;13.32;;;6.40;84.20;;;;;;5036935;28;20607;-70
2022/12/05 06:28:49;;;;;;;21.42;13.07;;;6.40;84.30;;;;;;5037205;28;20208;-66
2022/12/05 06:31:19;;;;;;;26.30;14.68;;;6.40;84.30;;;;;;5035201;28;20207;-67
2022/12/05 06:33:47;;;;;;;23.88;13.73;;;6.40;84.30;;;;;;5038966;28;20228;-68
2022/12/05 06:36:17;;;;;;;23.08;13.35;;;6.40;84.30;;;;;;5037216;28;21317;-68
2022/12/05 06:38:45;;;;;;;22.13;13.35;;;6.40;84.40;;;;;;5035707;28;20260;-67
2022/12/05 06:41:16;;;;;;;21.88;13.65;;;6.40;84.30;;;;;;5033155;28;20210;-68
2022/12/05 06:43:46;;;;;;;20.52;12.02;;;6.40;84.30;;;;;;5035852;28;20224;-67
2022/12/05 06:46:15;;;;;;;20.63;12.25;;;6.40;84.30;;;;;;5039677;28;20231;-66
2022/12/05 06:48:43;;;;;;;23.90;12.13;;;6.40;84.20;;;;;;5040451;28;20673;-67
2022/12/05 06:51:21;;;;;;;18.25;11.93;;;6.40;84.20;;;;;;5037470;28;20677;-67
2022/12/05 06:53:51;;;;;;;23.30;12.00;;;6.40;84.30;;;;;;5035996;28;20229;-67
2022/12/05 06:56:20;;;;;;;22.98;13.35;;;6.40;84.20;;;;;;5036271;28;20213;-69
2022/12/05 06:58:52;;;;;;;22.48;12.43;;;6.40;84.20;;;;;;5037349;28;20196;-67
2022/12/05 07:01:40;;;;;;;21.48;12.20;;;6.40;84.20;;;;;;5033920;28;20743;-66
2022/12/05 07:04:22;;;;;;;21.02;12.90;;;6.40;84.30;;;;;;5038069;28;20224;-67
2022/12/05 07:06:54;;;;;;;22.13;12.82;;;6.40;84.30;;;;;;5034161;28;20205;-67
2022/12/05 07:09:44;;;;;;;22.85;12.20;;;6.40;84.30;;;;;;5036554;28;20207;-66
2022/12/05 07:12:15;;;;;;;22.40;12.20;;;6.40;84.30;;;;;;5034174;28;20292;-68
2022/12/05 07:14:45;;;;;;;19.40;11.52;;;6.40;84.30;;;;;;5035399;28;20664;-67
2022/12/05 07:17:16;;;;;;;19.45;11.07;;;6.40;84.30;;;;;;5036054;28;20565;-67
2022/12/05 07:19:44;;;;;;;19.88;11.45;;;6.40;84.20;;;;;;5035567;28;20263;-67
2022/12/05 07:22:12;;;;;;;20.25;11.25;;;6.40;84.20;;;;;;5035672;28;20243;-68
2022/12/05 07:24:43;;;;;;;19.55;10.95;;;6.40;84.20;;;;;;5032469;28;20229;-71
2022/12/05 07:27:11;;;;;;;22.67;12.50;;;6.40;84.10;;;;;;5026908;28;20320;-69
2022/12/05 07:29:39;;;;;;;23.17;12.60;;;6.40;84.10;;;;;;5036705;28;20212;-70
2022/12/05 07:32:08;;;;;;;22.52;12.25;;;6.40;84.10;;;;;;5034525;28;20883;-70
2022/12/05 07:34:37;;;;;;;20.98;12.10;;;6.30;84.00;;;;;;5036677;28;20225;-69
2022/12/05 07:37:05;;;;;;;20.77;11.85;;;6.30;84.10;;;;;;5029888;28;20717;-70
2022/12/05 07:39:33;;;;;;;17.85;11.35;;;6.30;84.20;;;;;;5038767;28;20235;-70
2022/12/05 07:42:01;;;;;;;16.08;9.82;;;6.30;84.10;;;;;;5038274;28;20197;-70
2022/12/05 07:44:29;;;;;;;19.05;10.15;;;6.30;84.10;;;;;;5036980;28;20631;-71
2022/12/05 07:46:58;;;;;;;17.90;10.52;;;6.30;84.10;;;;;;5051512;28;20737;-71
2022/12/05 07:49:27;;;;;;;19.88;10.45;;;6.30;84.20;;;;;;5039974;28;20206;-71
2022/12/05 07:51:55;;;;;;;21.15;10.25;;;6.30;84.10;;;;;;5038336;28;20235;-70
2022/12/05 07:54:23;;;;;;;16.02;10.43;;;6.30;84.00;;;;;;5037390;28;20294;-71
2022/12/05 07:56:51;;;;;;;17.60;9.85;;;6.30;84.00;;;;;;5039630;28;20197;-70
2022/12/05 07:59:19;;;;;;;17.80;10.18;;;6.30;84.00;;;;;;5039178;28;20252;-71
2022/12/05 08:01:47;;;;;;;19.27;10.68;;;6.30;84.00;;;;;;5035839;28;20212;-69
2022/12/05 08:04:16;;;;;;;19.52;10.90;;;6.30;84.00;;;;;;5041100;28;20235;-71
2022/12/05 08:06:46;;;;;;;17.70;10.23;;;6.30;84.10;;;;;;5040944;28;20274;-71
2022/12/05 08:09:14;;;;;;;19.33;11.38;;;6.30;84.10;;;;;;5039670;28;20197;-69
2022/12/05 08:11:42;;;;;;;17.83;10.15;;;6.30;84.20;;;;;;5038310;28;20200;-69
2022/12/05 08:14:16;;;;;;;20.67;10.98;;;6.30;84.10;;;;;;5038642;28;20273;-69
2022/12/05 08:16:44;;;;;;;21.10;11.60;;;6.30;84.20;;;;;;5040094;28;20894;-70
2022/12/05 08:19:14;;;;;;;17.98;10.90;;;6.30;84.10;;;;;;5040305;28;20992;-69
2022/12/05 08:21:42;;;;;;;16.33;10.60;;;6.40;84.10;;;;;;5038849;28;20201;-69
2022/12/05 08:24:12;;;;;;;17.15;9.95;;;6.40;84.10;;;;;;5038867;28;20236;-69
2022/12/05 08:26:40;;;;;;;21.92;11.20;;;6.40;84.00;;;;;;5037934;28;20221;-70
2022/12/05 08:29:10;;;;;;;20.65;10.60;;;6.40;84.00;;;;;;5039944;28;20276;-69
2022/12/05 08:31:41;;;;;;;19.85;12.25;;;6.30;84.00;;;;;;5035408;28;20749;-70
2022/12/05 08:34:12;;;;;;;20.67;11.50;;;6.40;84.00;;;;;;5039582;28;20228;-70
2022/12/05 08:36:40;;;;;;;20.63;10.55;;;6.40;84.00;;;;;;5037990;28;20732;-70
2022/12/05 08:39:14;;;;;;;19.13;10.88;;;6.30;83.90;;;;;;5036571;28;20200;-70
2022/12/05 08:41:42;;;;;;;22.42;13.07;;;6.30;84.00;;;;;;5036427;28;20679;-70
2022/12/05 08:44:15;;;;;;;19.48;11.65;;;6.30;84.00;;;;;;5036927;28;20714;-70
2022/12/05 08:46:45;;;;;;;18.73;11.70;;;6.30;84.00;;;;;;5036921;28;20249;-68
2022/12/05 08:49:14;;;;;;;19.23;11.75;;;6.30;84.10;;;;;;5040002;28;20288;-69
2022/12/05 08:51:42;;;;;;;20.42;12.05;;;6.30;84.10;;;;;;5036244;28;20211;-70
2022/12/05 08:54:12;;;;;;;24.15;12.38;;;6.40;84.10;;;;;;5035200;28;20225;-69
2022/12/05 08:56:51;;;;;;;22.92;11.90;;;6.30;84.10;;;;;;5033022;28;20270;-69
2022/12/05 08:59:19;;;;;;;19.85;12.00;;;6.40;84.10;;;;;;5037770;28;20242;-69
2022/12/05 09:01:50;;;;;;;20.52;11.18;;;6.40;84.10;;;;;;5037580;28;20208;-69
2022/12/05 09:04:18;;;;;;;19.85;12.13;;;6.40;84.00;;;;;;5037244;28;20816;-69
2022/12/05 09:06:46;;;;;;;25.48;13.23;;;6.40;84.00;;;;;;5041857;28;20225;-69
2022/12/05 09:09:16;;;;;;;24.60;12.75;;;6.40;84.10;;;;;;5039458;28;20265;-69
2022/12/05 09:11:47;;;;;;;24.13;12.07;;;6.40;84.10;;;;;;5035705;28;20741;-69
2022/12/05 09:14:15;;;;;;;22.65;12.63;;;6.40;84.10;;;;;;5038239;28;20228;-71
2022/12/05 09:16:45;;;;;;;23.83;13.27;;;6.40;84.10;;;;;;5035879;28;20201;-70
2022/12/05 09:19:15;;;;;;;22.08;12.65;;;6.50;84.00;;;;;;5035110;28;20205;-70
2022/12/05 09:21:44;;;;;;;25.90;13.60;;;6.40;84.00;;;;;;5039734;28;21127;-71
2022/12/05 09:24:13;;;;;;;27.08;13.65;;;6.50;84.00;;;;;;5042896;28;20314;-71
2022/12/05 09:26:43;;;;;;;24.13;12.63;;;6.50;84.10;;;;;;5038293;28;20213;-69
2022/12/05 09:29:13;;;;;;;23.48;12.38;;;6.50;84.10;;;;;;5039522;28;20225;-70
2022/12/05 09:31:46;;;;;;;23.65;13.55;;;6.50;84.10;;;;;;5036482;28;20197;-70
2022/12/05 09:34:14;;;;;;;24.50;14.43;;;6.50;84.20;;;;;;5036323;28;20217;-69
2022/12/05 09:36:43;;;;;;;24.33;14.32;;;6.50;84.20;;;;;;5037861;28;20200;-70
2022/12/05 09:39:11;;;;;;;28.42;14.48;;;6.50;84.20;;;;;;5037385;28;20197;-70
2022/12/05 09:42:06;;;;;;;24.05;14.45;;;6.50;84.20;;;;;;5039690;28;20263;-70
2022/12/05 09:44:56;;;;;;;25.70;12.40;;;6.50;84.20;;;;;;5031393;28;20225;-70
2022/12/05 09:47:34;;;;;;;27.42;13.30;;;6.60;84.20;;;;;;5038511;28;20220;-71
2022/12/05 09:50:12;;;;;;;23.35;13.88;;;6.60;84.20;;;;;;5036815;28;20208;-71
2022/12/05 09:52:44;;;;;;;26.60;15.27;;;6.60;84.20;;;;;;5035936;28;20208;-70
2022/12/05 09:55:16;;;;;;;22.52;12.95;;;6.60;84.10;;;;;;5038711;28;20256;-70
2022/12/05 09:57:51;;;;;;;24.88;13.32;;;6.60;84.00;;;;;;5037995;28;20246;-70
2022/12/05 10:00:20;;;;;;;26.83;15.32;;;6.60;84.10;;;;;;5040126;28;20196;-68
2022/12/05 10:02:59;;;;;;;24.13;13.35;;;6.60;84.00;;;;;;5039548;28;20677;-70
2022/12/05 10:05:37;;;;;;;30.20;14.65;;;6.60;84.10;;;;;;5039061;28;20285;-70
2022/12/05 10:08:13;;;;;;;27.58;14.43;;;6.60;84.10;;;;;;5037122;28;20200;-70
2022/12/05 10:10:55;;;;;;;26.63;13.60;;;6.60;84.10;;;;;;5036451;28;20213;-68
2022/12/05 10:13:45;;;;;;;26.60;14.85;;;6.60;84.10;;;;;;5044187;28;20818;-71
2022/12/05 10:16:19;;;;;;;24.40;14.65;;;6.60;84.20;;;;;;5037751;28;20205;-70
2022/12/05 10:18:53;;;;;;;27.60;14.65;;;6.70;84.20;;;;;;5036076;28;20208;-70
2022/12/05 10:21:29;;;;;;;27.77;14.23;;;6.70;84.20;;;;;;5039233;28;20204;-70
2022/12/05 10:24:00;;;;;;;31.55;14.85;;;6.70;84.20;;;;;;5039475;28;20228;-71
2022/12/05 10:26:31;;;;;;;24.48;13.70;;;6.70;84.20;;;;;;5036474;28;20674;-70
2022/12/05 10:29:11;;;;;;;26.52;14.77;;;6.70;84.20;;;;;;5034835;28;20208;-70
2022/12/05 10:31:40;;;;;;;31.38;15.63;;;6.70;84.20;;;;;;5033918;28;20193;-72
2022/12/05 10:34:16;;;;;;;22.80;13.32;;;6.70;84.20;;;;;;5040885;28;20256;-71
2022/12/05 10:36:55;;;;;;;28.95;16.35;;;6.70;84.20;;;;;;5038600;28;20586;-71
2022/12/05 10:39:23;;;;;;;27.00;14.85;;;6.70;84.10;;;;;;5038545;28;20246;-71
2022/12/05 10:41:51;;;;;;;25.83;14.23;;;6.70;84.20;;;;;;5038064;28;20670;-70
2022/12/05 10:44:20;;;;;;;29.42;15.65;;;6.70;84.20;;;;;;5035941;28;20236;-71
2022/12/05 10:46:49;;;;;;;30.52;15.15;;;6.70;84.20;;;;;;5027811;28;20254;-70
2022/12/05 10:49:18;;;;;;;28.05;15.77;;;6.70;84.20;;;;;;5019660;28;20219;-70
2022/12/05 10:51:47;;;;;;;23.92;13.93;;;6.70;84.30;;;;;;5030859;28;20227;-70
2022/12/05 10:54:20;;;;;;;24.20;14.07;;;6.80;84.30;;;;;;5038229;28;20883;-71
2022/12/05 10:56:50;;;;;;;32.20;14.60;;;6.80;84.30;;;;;;5036480;28;20212;-71
2022/12/05 10:59:21;;;;;;;28.67;15.35;;;6.80;84.30;;;;;;5038005;28;20201;-71
2022/12/05 11:01:52;;;;;;;28.02;13.75;;;6.80;84.30;;;;;;5031846;28;20196;-71
2022/12/05 11:04:28;;;;;;;28.05;14.60;;;6.80;84.30;;;;;;5035724;28;20220;-71
2022/12/05 11:07:00;;;;;;;23.25;14.48;;;6.80;84.40;;;;;;5037295;28;20716;-71
2022/12/05 11:09:30;;;;;;;27.42;13.23;;;6.80;84.40;;;;;;5036779;28;20233;-68
2022/12/05 11:12:16;;;;;;;27.90;14.70;;;6.80;84.30;;;;;;5031846;28;20258;-70
2022/12/05 11:14:57;;;;;;;29.80;15.02;;;6.80;84.30;;;;;;5032357;28;20239;-71
2022/12/05 11:17:30;;;;;;;28.13;14.48;;;6.80;84.30;;;;;;5029414;28;20197;-71
2022/12/05 11:19:58;;;;;;;28.58;13.98;;;6.80;84.40;;;;;;5034931;28;20301;-70
2022/12/05 11:22:35;;;;;;;25.60;14.85;;;6.80;84.40;;;;;;5037490;28;20209;-72
2022/12/05 11:25:25;;;;;;;24.33;14.80;;;6.90;84.40;;;;;;5044081;28;20216;-71
2022/12/05 11:27:53;;;;;;;25.33;14.07;;;6.90;84.40;;;;;;5038404;28;20201;-71
2022/12/05 11:30:29;;;;;;;23.60;14.10;;;6.90;84.40;;;;;;5038480;28;20293;-70
2022/12/05 11:33:12;;;;;;;25.23;13.38;;;6.90;84.40;;;;;;5040606;28;20239;-71
2022/12/05 11:35:41;;;;;;;25.17;14.95;;;6.90;84.40;;;;;;5043327;28;20232;-70
2022/12/05 11:38:12;;;;;;;47.33;24.08;;;6.90;84.40;;;;;;5040479;28;20209;-71
2022/12/05 11:40:48;;;;;;;34.35;17.65;;;6.90;84.30;;;;;;5042114;28;20624;-70
2022/12/05 11:43:44;;;;;;;49.80;23.60;;;6.80;84.30;;;;;;5041654;28;20204;-71
2022/12/05 11:46:26;;;;;;;59.25;32.10;;;6.80;84.30;;;;;;5058597;28;20209;-70
2022/12/05 11:49:12;;;;;;;55.90;28.02;;;6.80;84.40;;;;;;5032351;28;20213;-70
2022/12/05 11:51:45;;;;;;;42.50;22.08;;;6.80;84.40;;;;;;5039231;28;20728;-70
2022/12/05 11:54:27;;;;;;;33.13;17.05;;;6.90;84.40;;;;;;5037690;28;20229;-70
2022/12/05 11:57:23;;;;;;;36.35;18.77;;;6.80;84.40;;;;;;5034782;28;20923;-70
2022/12/05 12:00:18;;;;;;;35.22;17.90;;;6.90;84.50;;;;;;5037374;28;20221;-70
2022/12/05 12:03:21;;;;;;;36.35;17.92;;;6.90;84.50;;;;;;5035686;28;20212;-70
2022/12/05 12:06:00;;;;;;;32.22;16.80;;;6.90;84.50;;;;;;5036846;28;20311;-69
2022/12/05 12:08:30;;;;;;;34.28;17.05;;;6.90;84.50;;;;;;5034837;28;20213;-69
2022/12/05 12:11:06;;;;;;;30.35;16.58;;;6.90;84.50;;;;;;5037159;28;20209;-72
2022/12/05 12:13:57;;;;;;;33.97;17.35;;;6.90;84.50;;;;;;5041398;28;20214;-72
2022/12/05 12:16:37;;;;;;;32.88;17.75;;;6.90;84.40;;;;;;5041664;28;20215;-72
2022/12/05 12:19:27;;;;;;;31.95;17.05;;;6.90;84.40;;;;;;5034796;28;20193;-70
2022/12/05 12:22:11;;;;;;;33.83;16.60;;;6.90;84.40;;;;;;5038427;28;20602;-71
2022/12/05 12:25:00;;;;;;;39.60;17.40;;;6.90;84.40;;;;;;5039240;28;20236;-70
2022/12/05 12:27:40;;;;;;;36.88;18.38;;;6.90;84.40;;;;;;5033546;28;20217;-70
2022/12/05 12:30:15;;;;;;;40.75;19.48;;;6.80;84.40;;;;;;5038588;28;20776;-71
2022/12/05 12:32:50;;;;;;;37.63;18.55;;;6.80;84.50;;;;;;5036980;28;20196;-71
2022/12/05 12:35:28;;;;;;;34.85;18.92;;;6.90;84.50;;;;;;5036514;28;20289;-70
2022/12/05 12:38:20;;;;;;;35.80;19.23;;;6.90;84.60;;;;;;5033058;28;20242;-70
2022/12/05 12:40:51;;;;;;;35.85;17.27;;;6.90;84.60;;;;;;5032618;28;20216;-71
2022/12/05 12:43:36;;;;;;;35.95;18.33;;;6.90;84.60;;;;;;5032734;28;20205;-71
2022/12/05 12:46:40;;;;;;;36.33;17.33;;;6.90;84.60;;;;;;5032258;28;20571;-71
2022/12/05 12:49:22;;;;;;;34.15;16.63;;;6.90;84.60;;;;;;5035516;28;20405;-71
2022/12/05 12:51:53;;;;;;;39.38;17.55;;;6.90;84.60;;;;;;5041445;28;20288;-71
2022/12/05 12:54:42;;;;;;;29.45;15.57;;;6.90;84.50;;;;;;5039180;28;20228;-71
2022/12/05 12:57:43;;;;;;;29.52;15.27;;;6.90;84.60;;;;;;5033163;28;20228;-71
2022/12/05 13:00:22;;;;;;;26.77;14.90;;;6.90;84.60;;;;;;5032782;28;20201;-70
2022/12/05 13:02:54;;;;;;;26.23;13.18;;;6.90;84.60;;;;;;5035217;28;20778;-72
2022/12/05 13:05:30;;;;;;;28.48;12.73;;;6.90;84.60;;;;;;5039914;28;20221;-69
2022/12/05 13:08:04;;;;;;;25.42;12.93;;;6.90;84.50;;;;;;5037904;28;20253;-72
2022/12/05 13:10:36;;;;;;;26.73;12.73;;;6.90;84.50;;;;;;5036896;28;20242;-70
2022/12/05 13:13:06;;;;;;;26.27;13.30;;;6.90;84.40;;;;;;5034764;28;20209;-71
2022/12/05 13:15:39;;;;;;;21.50;11.02;;;6.90;84.50;;;;;;5039302;28;20239;-71